Terminal Aerodrome Forecast
Issued by NWS Grand Forks, ND

Home | Current Version | Previous Version | Text Only | Print | Product List | Glossary On
Versions: 1 2 3 4 5 6 7 8 9 10 11 12 13 14
000
FTUS43 KFGF 221100
TAFFAR
TAF
KFAR 221122Z 2212/2312 32010KT P6SM SCT250
      TEMPO 2212/2213 BKN025
     FM221700 34012KT P6SM SCT040
     FM230100 36004KT P6SM SKC=

USA.gov is the U.S. government's official web portal to all federal, state and local government web resources and services.